createdAt,value
2022-08-01T00:02:54.302Z,148.65116
2022-08-01T00:07:55.231Z,148.65116
2022-08-01T00:12:56.126Z,147.97351
2022-08-01T00:17:57.027Z,147.97351
2022-08-01T00:22:57.930Z,147.30033
2022-08-01T00:27:58.841Z,147.30033
2022-08-01T00:32:59.902Z,148.65116
2022-08-01T00:43:01.422Z,147.97351
2022-08-01T00:48:02.346Z,147.30033
2022-08-01T00:53:03.244Z,147.30033
2022-08-01T00:58:06.050Z,147.30033
2022-08-01T01:03:07.638Z,148.65116
2022-08-01T01:08:08.541Z,149.33333
2022-08-01T01:13:09.521Z,148.65116
2022-08-01T01:18:10.431Z,148.65116
2022-08-01T01:23:11.323Z,147.97351
2022-08-01T01:28:12.248Z,147.30033
2022-08-01T01:33:13.190Z,147.30033
2022-08-01T01:38:14.103Z,147.97351
2022-08-01T01:43:15.018Z,148.65116
2022-08-01T01:48:16.045Z,150.02007
2022-08-01T01:53:16.966Z,150.71141
2022-08-01T01:58:17.944Z,150.02007
2022-08-01T02:03:18.907Z,151.40741
2022-08-01T02:08:19.860Z,154.9589
2022-08-01T02:13:21.346Z,151.40741
2022-08-01T02:18:23.975Z,150.71141
2022-08-01T02:23:24.952Z,151.40741
2022-08-01T02:28:25.935Z,151.40741
2022-08-01T02:33:27.829Z,151.40741
2022-08-01T02:38:29.500Z,153.52381
2022-08-01T02:43:30.744Z,152.10811
2022-08-01T02:48:31.624Z,152.10811
2022-08-01T02:53:44.022Z,152.81356
2022-08-01T02:58:45.737Z,152.81356
2022-08-01T03:03:46.764Z,151.40741
2022-08-01T03:08:47.679Z,151.40741
2022-08-01T03:13:48.582Z,151.40741
2022-08-01T03:18:49.675Z,150.71141
2022-08-01T03:23:54.759Z,150.71141
2022-08-01T03:28:56.184Z,150.02007
2022-08-01T03:33:57.094Z,150.71141
2022-08-01T03:38:58.434Z,151.40741
2022-08-01T03:43:59.560Z,150.71141
2022-08-01T03:49:00.510Z,150.71141
2022-08-01T03:54:01.854Z,151.40741
2022-08-01T03:59:02.777Z,150.71141
2022-08-01T04:04:03.718Z,150.02007
2022-08-01T04:09:04.685Z,150.71141
2022-08-01T04:19:07.957Z,150.71141
2022-08-01T04:24:09.208Z,150.71141
2022-08-01T04:29:10.148Z,150.71141
2022-08-01T04:34:11.114Z,149.33333
2022-08-01T04:39:12.093Z,148.65116
2022-08-01T04:44:12.978Z,149.33333
2022-08-01T04:49:14.006Z,149.33333
2022-08-01T04:54:14.975Z,148.65116
2022-08-01T04:59:20.215Z,150.71141
2022-08-01T05:04:21.416Z,150.02007
2022-08-01T05:09:22.369Z,150.02007
2022-08-01T05:14:23.265Z,149.33333
2022-08-01T05:19:24.186Z,148.65116
2022-08-01T05:24:25.101Z,147.30033
2022-08-01T05:29:26.719Z,147.97351
2022-08-01T05:34:27.663Z,146.63158
2022-08-01T05:39:29.078Z,145.96721
2022-08-01T05:44:30.098Z,145.96721
2022-08-01T05:49:31.045Z,144.65147
2022-08-01T05:54:31.968Z,145.96721
2022-08-01T05:59:32.963Z,145.96721
2022-08-01T06:04:33.881Z,144.65147
2022-08-01T06:09:34.943Z,144.0
2022-08-01T06:14:35.855Z,144.65147
2022-08-01T06:19:36.763Z,144.65147
2022-08-01T06:24:37.689Z,144.65147
2022-08-01T06:29:38.605Z,144.65147
2022-08-01T06:34:39.537Z,144.0
2022-08-01T06:39:40.473Z,142.70968
2022-08-01T06:44:42.438Z,142.07074
2022-08-01T06:49:43.479Z,142.70968
2022-08-01T06:54:44.375Z,142.07074
2022-08-01T06:59:54.525Z,142.07074
2022-08-01T07:04:55.723Z,142.70968
2022-08-01T07:09:56.625Z,142.70968
2022-08-01T07:14:57.596Z,143.35275
2022-08-01T07:19:58.542Z,141.4359
2022-08-01T07:24:59.455Z,140.80511
2022-08-01T07:30:00.386Z,140.17834
2022-08-01T07:35:01.409Z,140.80511
2022-08-01T07:40:02.623Z,141.4359
2022-08-01T07:45:03.524Z,144.65147
2022-08-01T07:50:04.462Z,145.30719
2022-08-01T07:55:05.365Z,144.65147
2022-08-01T08:00:06.286Z,145.30719
2022-08-01T08:05:07.246Z,144.0
2022-08-01T08:10:08.219Z,142.70968
2022-08-01T08:15:09.247Z,142.70968
2022-08-01T08:20:10.171Z,142.07074
2022-08-01T08:25:11.102Z,142.70968
2022-08-01T08:30:12.808Z,141.4359
2022-08-01T08:35:18.444Z,142.70968
2022-08-01T08:40:24.048Z,142.70968
2022-08-01T08:45:29.631Z,145.30719
2022-08-01T08:50:57.231Z,145.96721
2022-08-01T08:55:58.421Z,144.65147
2022-08-01T09:00:59.339Z,142.70968
2022-08-01T09:06:00.301Z,141.4359
2022-08-01T09:11:01.364Z,139.55556
2022-08-01T09:16:02.492Z,139.55556
2022-08-01T09:21:03.411Z,139.55556
2022-08-01T09:26:04.307Z,139.55556
2022-08-01T09:31:05.198Z,139.55556
2022-08-01T09:36:06.146Z,139.55556
2022-08-01T09:41:14.340Z,139.55556
2022-08-01T09:46:15.273Z,141.4359
2022-08-01T09:51:57.826Z,142.07074
2022-08-01T09:57:01.809Z,142.07074
2022-08-01T10:02:02.704Z,140.80511
2022-08-01T10:07:04.305Z,144.0
2022-08-01T10:12:05.581Z,143.35275
2022-08-01T10:17:06.753Z,145.96721
2022-08-01T10:22:09.947Z,145.96721
2022-08-01T10:27:12.596Z,145.30719
2022-08-01T10:32:13.881Z,150.71141
2022-08-01T10:37:14.829Z,146.63158
2022-08-01T10:42:16.739Z,150.02007
2022-08-01T10:47:22.813Z,145.30719
2022-08-01T10:52:24.602Z,147.97351
2022-08-01T10:57:27.607Z,145.30719
2022-08-01T11:02:31.999Z,145.30719
2022-08-01T11:07:34.848Z,144.65147
2022-08-01T11:12:36.474Z,144.65147
2022-08-01T11:17:41.996Z,143.35275
2022-08-01T11:22:43.670Z,142.70968
2022-08-01T11:27:45.575Z,141.4359
2022-08-01T11:33:10.393Z,141.4359
2022-08-01T11:38:13.010Z,142.70968
2022-08-01T11:43:13.894Z,141.4359
2022-08-01T11:48:14.870Z,140.80511
2022-08-01T11:53:17.052Z,141.4359
2022-08-01T11:58:29.468Z,145.96721
2022-08-01T12:03:33.758Z,144.65147
2022-08-01T12:08:35.052Z,142.70968
2022-08-01T12:13:35.976Z,142.07074
2022-08-01T12:18:36.937Z,142.70968
2022-08-01T12:23:37.864Z,141.4359
2022-08-01T12:28:38.786Z,140.17834
2022-08-01T12:33:39.715Z,139.55556
2022-08-01T12:38:40.646Z,140.80511
2022-08-01T12:43:41.540Z,138.32177
2022-08-01T12:48:42.490Z,140.17834
2022-08-01T12:53:43.433Z,138.93671
2022-08-01T12:58:44.364Z,139.55556
2022-08-01T13:03:45.275Z,141.4359
2022-08-01T13:08:46.438Z,143.35275
2022-08-01T13:13:47.427Z,140.80511
2022-08-01T13:18:48.304Z,142.07074
2022-08-01T13:24:01.317Z,138.32177
2022-08-01T13:29:04.078Z,140.80511
2022-08-01T13:34:04.977Z,140.80511
2022-08-01T13:39:05.926Z,139.55556
2022-08-01T13:44:06.860Z,140.17834
2022-08-01T13:49:16.372Z,141.4359
2022-08-01T13:54:17.629Z,140.80511
2022-08-01T13:59:18.566Z,138.93671
2022-08-01T14:04:19.809Z,143.35275
2022-08-01T14:15:01.461Z,140.17834
2022-08-01T14:20:02.514Z,140.80511
2022-08-01T14:25:03.762Z,140.80511
2022-08-01T14:30:06.319Z,138.93671
2022-08-01T14:35:07.437Z,138.32177
2022-08-01T14:40:08.314Z,136.5
2022-08-01T14:45:10.312Z,138.32177
2022-08-01T14:50:11.296Z,140.80511
2022-08-01T14:55:12.174Z,142.70968
2022-08-01T15:00:13.077Z,141.4359
2022-08-01T15:05:13.985Z,143.35275
2022-08-01T15:10:14.965Z,141.4359
2022-08-01T15:15:15.899Z,144.0
2022-08-01T15:20:16.823Z,139.55556
2022-08-01T15:25:17.769Z,138.93671
2022-08-01T15:30:26.800Z,138.93671
2022-08-01T15:35:28.628Z,138.93671
2022-08-01T15:40:29.648Z,138.93671
2022-08-01T15:45:47.513Z,138.93671
2022-08-01T15:50:48.973Z,138.93671
2022-08-01T15:55:52.325Z,137.71069
2022-08-01T16:00:53.704Z,137.10345
2022-08-01T16:05:54.609Z,136.5
2022-08-01T16:10:55.633Z,135.90031
2022-08-01T16:15:56.555Z,138.93671
2022-08-01T16:20:57.484Z,138.32177
2022-08-01T16:25:58.410Z,137.71069
2022-08-01T16:31:08.937Z,138.32177
2022-08-01T16:36:17.088Z,138.32177
2022-08-01T16:41:19.914Z,138.32177
2022-08-01T16:46:21.527Z,138.32177
2022-08-01T16:51:22.432Z,138.32177
2022-08-01T16:56:23.461Z,138.93671
2022-08-01T17:01:58.817Z,138.32177
2022-08-01T17:07:03.780Z,139.55556
2022-08-01T17:12:04.896Z,138.93671
2022-08-01T17:17:06.042Z,138.93671
2022-08-01T17:22:07.100Z,139.55556
2022-08-01T17:27:12.549Z,139.55556
2022-08-01T17:32:14.174Z,140.17834
2022-08-01T17:37:15.070Z,140.17834
2022-08-01T17:42:15.988Z,140.80511
2022-08-01T17:47:34.394Z,140.80511
2022-08-01T17:52:49.305Z,140.80511
2022-08-01T17:57:50.214Z,140.80511
2022-08-01T18:02:51.517Z,141.4359
2022-08-01T18:08:01.459Z,141.4359
2022-08-01T18:13:03.061Z,141.4359
2022-08-01T18:18:04.033Z,141.4359
2022-08-01T18:23:04.960Z,141.4359
2022-08-01T18:28:22.305Z,142.07074
2022-08-01T18:33:33.633Z,142.07074
2022-08-01T18:38:35.179Z,142.70968
2022-08-01T18:43:38.312Z,142.70968
2022-08-01T18:48:39.266Z,142.70968
2022-08-01T18:53:40.172Z,143.35275
2022-08-01T18:58:43.050Z,143.35275
2022-08-01T19:03:44.080Z,143.35275
2022-08-01T19:08:45.137Z,144.0
2022-08-01T19:13:46.635Z,144.0
2022-08-01T19:18:47.601Z,144.0
2022-08-01T19:23:49.340Z,144.0
2022-08-01T19:28:50.286Z,144.65147
2022-08-01T19:33:51.417Z,144.65147
2022-08-01T19:38:52.396Z,144.65147
2022-08-01T19:43:53.336Z,144.65147
2022-08-01T19:48:54.384Z,144.65147
2022-08-01T19:53:55.453Z,144.65147
2022-08-01T19:58:59.500Z,144.65147
2022-08-01T20:04:01.457Z,144.65147
2022-08-01T20:09:04.890Z,145.96721
2022-08-01T20:14:05.795Z,146.63158
2022-08-01T20:19:06.793Z,147.30033
2022-08-01T20:24:07.774Z,147.30033
2022-08-01T20:29:08.702Z,147.30033
2022-08-01T20:34:09.891Z,147.30033
2022-08-01T20:39:17.046Z,146.63158
2022-08-01T20:44:22.552Z,147.30033
2022-08-01T20:49:23.710Z,147.30033
2022-08-01T20:54:34.758Z,147.30033
2022-08-01T20:59:39.951Z,147.30033
2022-08-01T21:04:57.353Z,147.30033
2022-08-01T21:09:58.325Z,147.30033
2022-08-01T21:14:59.274Z,147.30033
2022-08-01T21:20:05.153Z,147.97351
2022-08-01T21:25:11.221Z,147.30033
2022-08-01T21:30:12.159Z,147.97351
2022-08-01T21:35:15.978Z,147.97351
2022-08-01T21:40:17.561Z,148.65116
2022-08-01T21:45:18.540Z,148.65116
2022-08-01T21:50:19.517Z,148.65116
2022-08-01T21:55:20.413Z,148.65116
2022-08-01T22:00:25.412Z,148.65116
2022-08-01T22:05:49.637Z,148.65116
2022-08-01T22:10:52.174Z,148.65116
2022-08-01T22:15:53.086Z,148.65116
2022-08-01T22:20:54.026Z,148.65116
2022-08-01T22:25:54.951Z,148.65116
2022-08-01T22:30:55.882Z,148.65116
2022-08-01T22:35:56.927Z,148.65116
2022-08-01T22:40:57.848Z,148.65116
2022-08-01T22:45:58.789Z,148.65116
2022-08-01T22:51:00.872Z,148.65116
2022-08-01T22:56:01.886Z,148.65116
2022-08-01T23:01:03.170Z,148.65116
2022-08-01T23:06:04.103Z,148.65116
2022-08-01T23:11:05.039Z,148.65116
2022-08-01T23:16:06.032Z,148.65116
2022-08-01T23:21:06.935Z,148.65116
2022-08-01T23:26:07.842Z,148.65116
2022-08-01T23:31:08.770Z,148.65116
2022-08-01T23:36:10.417Z,149.33333
2022-08-01T23:41:11.379Z,149.33333
2022-08-01T23:46:12.278Z,150.02007
2022-08-01T23:51:24.018Z,149.33333
2022-08-01T23:56:26.809Z,150.02007
